Time;durP1;ratioP1;P1;durP2;ratioP2;P2;SDS_P1;SDS_P2;PMS_P1;PMS_P2;Temp;Humidity;BMP_temperature;BMP_pressure;BME280_temperature;BME280_humidity;BME280_pressure;Samples;Min_cycle;Max_cycle;Signal;HPM_P1;HPM_P2
2022/10/18 00:00:04;;;;;;;7.32;4.12;;;;;;;17.30;100.00;99806.50;4298934;33;20466;-77
2022/10/18 00:02:51;;;;;;;10.82;3.70;;;;;;;17.32;100.00;99809.75;4306499;33;20053;-78
2022/10/18 00:05:18;;;;;;;5.12;3.58;;;;;;;16.86;100.00;99763.56;4285700;33;20056;-76
2022/10/18 00:07:44;;;;;;;8.32;3.85;;;;;;;17.00;100.00;99794.53;4308142;33;20441;-76
2022/10/18 00:10:10;;;;;;;5.45;3.80;;;;;;;16.86;100.00;99801.63;4308413;33;20029;-76
2022/10/18 00:12:37;;;;;;;6.45;3.67;;;;;;;17.23;100.00;99800.50;4307719;33;20041;-77
2022/10/18 00:15:05;;;;;;;8.23;3.67;;;;;;;16.71;100.00;99795.06;4306518;33;20028;-79
2022/10/18 00:17:36;;;;;;;7.18;4.03;;;;;;;16.64;100.00;99763.78;4307768;33;20098;-78
2022/10/18 00:20:04;;;;;;;11.18;3.62;;;;;;;16.87;100.00;99759.75;4267609;33;20069;-79
2022/10/18 00:22:39;;;;;;;5.72;4.20;;;;;;;16.89;100.00;99801.91;4264982;33;20057;-79
2022/10/18 00:25:07;;;;;;;7.62;3.62;;;;;;;16.87;100.00;99797.84;4277387;33;20033;-77
2022/10/18 00:27:34;;;;;;;9.38;3.85;;;;;;;16.64;100.00;99794.53;4293596;33;20446;-78
2022/10/18 00:30:01;;;;;;;8.55;4.00;;;;;;;16.25;100.00;99727.09;4293415;33;20033;-77
2022/10/18 00:32:27;;;;;;;5.32;3.30;;;;;;;16.57;100.00;99787.75;4265060;33;20372;-77
2022/10/18 00:34:54;;;;;;;10.88;4.87;;;;;;;16.49;100.00;99781.72;4275522;33;20044;-79
2022/10/18 00:37:20;;;;;;;5.82;3.40;;;;;;;16.55;100.00;99788.00;4265334;33;20076;-78
2022/10/18 00:39:46;;;;;;;6.95;3.37;;;;;;;16.43;100.00;99771.94;4286391;33;20057;-77
2022/10/18 00:42:18;;;;;;;5.78;3.53;;;;;;;16.33;100.00;99742.84;4288993;33;20217;-76
2022/10/18 00:44:44;;;;;;;4.05;3.62;;;;;;;16.76;100.00;99782.56;4276781;33;20059;-76
2022/10/18 00:47:15;;;;;;;5.57;3.53;;;;;;;16.19;100.00;99746.38;4280242;33;20059;-76
2022/10/18 00:49:45;;;;;;;11.10;4.30;;;;;;;16.45;100.00;99785.25;4280824;33;20026;-77
2022/10/18 00:52:57;;;;;;;7.50;3.58;;;;;;;16.75;100.00;99780.94;4297219;33;20508;-77
2022/10/18 00:55:24;;;;;;;7.50;4.45;;;;;;;16.49;100.00;99764.63;4297180;33;20088;-76
2022/10/18 00:57:51;;;;;;;11.00;4.32;;;;;;;15.66;100.00;99637.91;4294610;33;20040;-80
2022/10/18 01:00:18;;;;;;;10.93;3.53;;;;;;;16.39;100.00;99721.16;4296411;33;20055;-77
2022/10/18 01:02:45;;;;;;;10.02;3.50;;;;;;;16.49;100.00;99775.50;4293189;33;20119;-79
2022/10/18 01:05:14;;;;;;;3.78;3.20;;;;;;;16.44;100.00;99756.47;4272819;33;20037;-78
2022/10/18 01:08:15;;;;;;;6.18;3.42;;;;;;;16.69;100.00;99766.53;4280143;33;20049;-77
2022/10/18 01:11:11;;;;;;;8.07;4.50;;;;;;;16.47;100.00;99726.03;4274786;33;20034;-77
2022/10/18 01:14:03;;;;;;;8.80;4.43;;;;;;;16.77;100.00;99757.00;4238823;33;20047;-77
2022/10/18 01:16:42;;;;;;;13.60;3.75;;;;;;;16.33;100.00;99718.41;4239100;33;20064;-77
2022/10/18 01:19:37;;;;;;;5.75;4.05;;;;;;;16.22;100.00;99714.03;4248032;33;20059;-77
2022/10/18 01:22:26;;;;;;;10.13;4.47;;;;;;;16.24;100.00;99736.34;4254404;33;20054;-77
2022/10/18 01:25:09;;;;;;;4.05;3.28;;;;;;;16.71;100.00;99753.47;4225222;33;20476;-77
2022/10/18 01:28:04;;;;;;;6.70;3.53;;;;;;;16.52;100.00;99715.16;4215992;34;20096;-76
2022/10/18 01:30:37;;;;;;;8.27;4.40;;;;;;;16.79;100.00;99757.56;4217557;33;20998;-79
2022/10/18 01:33:26;;;;;;;5.93;3.90;;;;;;;16.61;100.00;99762.47;4227270;33;20034;-78
2022/10/18 01:36:16;;;;;;;4.25;3.58;;;;;;;16.44;100.00;99721.13;4247265;33;20055;-78
2022/10/18 01:38:52;;;;;;;10.25;3.42;;;;;;;16.47;100.00;99720.59;4262078;33;20030;-77
2022/10/18 01:41:21;;;;;;;21.73;4.12;;;;;;;16.65;100.00;99766.25;4252764;33;20057;-79
2022/10/18 01:43:52;;;;;;;9.80;3.70;;;;;;;16.56;100.00;99748.87;4253824;33;20067;-77
2022/10/18 01:46:22;;;;;;;4.10;3.05;;;;;;;16.81;100.00;99742.59;4253157;33;20068;-79
2022/10/18 01:48:50;;;;;;;5.55;4.05;;;;;;;16.33;100.00;99753.72;4281026;33;20041;-78
2022/10/18 01:51:25;;;;;;;8.32;3.72;;;;;;;16.25;100.00;99726.28;4280943;33;20369;-80
2022/10/18 01:53:52;;;;;;;8.15;4.00;;;;;;;16.37;100.00;99739.59;4294062;33;20074;-78
2022/10/18 01:57:03;;;;;;;10.02;3.67;;;;;;;16.34;100.00;99736.34;4294891;33;20041;-79
2022/10/18 01:59:54;;;;;;;5.22;3.62;;;;;;;16.19;100.00;99694.75;4284887;33;20111;-77
2022/10/18 02:02:46;;;;;;;5.72;3.60;;;;;;;16.11;100.00;99683.31;4271012;33;20060;-78
2022/10/18 02:05:42;;;;;;;7.60;4.05;;;;;;;16.64;100.00;99723.84;4261562;33;20030;-77
2022/10/18 02:08:16;;;;;;;5.70;3.58;;;;;;;16.41;100.00;99727.13;4237340;33;20101;-78
2022/10/18 02:10:49;;;;;;;9.88;4.10;;;;;;;16.58;100.00;99734.97;4237842;33;20031;-77
2022/10/18 02:13:19;;;;;;;12.30;4.35;;;;;;;16.33;100.00;99729.28;4239586;33;20043;-77
2022/10/18 02:15:49;;;;;;;11.50;3.90;;;;;;;16.69;100.00;99739.34;4235987;33;20376;-77
2022/10/18 02:18:22;;;;;;;9.43;4.12;;;;;;;16.10;100.00;99664.63;4242136;33;20074;-76
2022/10/18 02:20:49;;;;;;;7.25;3.92;;;;;;;16.28;100.00;99683.06;4253595;33;20030;-76
2022/10/18 02:23:21;;;;;;;16.98;4.15;;;;;;;16.16;100.00;99685.25;4252372;33;20042;-76
2022/10/18 02:25:48;;;;;;;12.05;3.78;;;;;;;16.25;100.00;99683.63;4251761;33;20052;-77
2022/10/18 02:28:14;;;;;;;10.20;3.92;;;;;;;16.45;100.00;99731.75;4277732;33;20040;-76
2022/10/18 02:30:51;;;;;;;6.30;4.75;;;;;;;16.29;100.00;99695.59;4281164;33;20368;-76
2022/10/18 02:33:22;;;;;;;6.15;3.85;;;;;;;16.44;100.00;99729.28;4299023;33;20066;-77
2022/10/18 02:35:59;;;;;;;9.23;4.30;;;;;;;16.25;100.00;99732.53;4310881;33;20036;-77
2022/10/18 02:38:27;;;;;;;7.47;3.92;;;;;;;16.16;100.00;99734.13;4302341;33;20407;-76
2022/10/18 02:41:00;;;;;;;6.50;4.25;;;;;;;15.92;100.00;99723.78;4279225;33;20055;-78
2022/10/18 02:43:27;;;;;;;7.12;4.05;;;;;;;16.00;100.00;99680.87;4283865;33;20111;-76
2022/10/18 02:45:53;;;;;;;7.05;4.00;;;;;;;16.02;100.00;99695.00;4259657;33;20459;-77
2022/10/18 02:48:20;;;;;;;5.72;4.35;;;;;;;15.87;100.00;99696.59;4264451;33;20038;-77
2022/10/18 02:50:46;;;;;;;11.23;4.37;;;;;;;15.85;100.00;99717.78;4251299;33;20194;-77
2022/10/18 02:53:13;;;;;;;7.50;4.20;;;;;;;16.10;100.00;99713.50;4249712;33;20060;-79
2022/10/18 02:55:39;;;;;;;17.08;3.37;;;;;;;16.02;100.00;99741.16;4252974;33;20931;-76
2022/10/18 02:58:06;;;;;;;6.28;4.45;;;;;;;15.97;100.00;99740.09;4254452;33;20341;-77
2022/10/18 03:00:32;;;;;;;5.95;3.58;;;;;;;15.95;100.00;99703.41;4266252;33;20072;-77
2022/10/18 03:02:58;;;;;;;8.30;4.72;;;;;;;15.75;100.00;99706.88;4265213;33;20046;-77
2022/10/18 03:05:25;;;;;;;6.80;4.03;;;;;;;15.95;100.00;99744.97;4257052;33;20030;-78
2022/10/18 03:07:51;;;;;;;9.85;4.35;;;;;;;16.02;100.00;99741.16;4265921;33;20049;-75
2022/10/18 03:10:17;;;;;;;7.65;4.15;;;;;;;16.05;100.00;99746.91;4240508;33;20360;-77
2022/10/18 03:12:44;;;;;;;10.68;4.40;;;;;;;15.60;100.00;99705.75;4216884;33;20082;-77
2022/10/18 03:15:10;;;;;;;11.65;3.58;;;;;;;15.86;100.00;99734.87;4213804;33;20061;-77
2022/10/18 03:17:36;;;;;;;8.60;4.15;;;;;;;15.46;100.00;99699.19;4236041;33;20158;-78
2022/10/18 03:20:03;;;;;;;11.27;3.75;;;;;;;15.37;100.00;99692.62;4280884;33;20033;-77
2022/10/18 03:22:30;;;;;;;6.45;4.10;;;;;;;15.42;100.00;99733.34;4294358;33;20067;-76
2022/10/18 03:24:56;;;;;;;7.93;4.10;;;;;;;15.88;100.00;99749.84;4295698;33;20029;-78
2022/10/18 03:27:23;;;;;;;5.30;3.90;;;;;;;15.37;100.00;99728.72;4322902;33;20047;-76
2022/10/18 03:29:49;;;;;;;10.68;4.72;;;;;;;15.89;100.00;99743.34;4321966;33;20056;-78
2022/10/18 03:32:15;;;;;;;5.50;3.92;;;;;;;15.73;100.00;99692.75;4320947;33;20036;-77
2022/10/18 03:34:41;;;;;;;5.32;3.72;;;;;;;15.91;100.00;99738.44;4324464;33;20382;-77
2022/10/18 03:37:08;;;;;;;8.25;3.78;;;;;;;15.89;100.00;99746.06;4324202;33;20029;-77
2022/10/18 03:39:34;;;;;;;7.55;4.10;;;;;;;15.41;100.00;99691.00;4322745;33;20098;-78
2022/10/18 03:42:01;;;;;;;8.20;4.15;;;;;;;15.56;100.00;99734.50;4320726;33;20045;-79
2022/10/18 03:44:27;;;;;;;11.12;3.83;;;;;;;15.69;100.00;99730.47;4324011;33;20567;-78
2022/10/18 03:46:54;;;;;;;9.23;4.40;;;;;;;15.65;100.00;99714.97;4323347;33;20070;-78
2022/10/18 03:49:20;;;;;;;11.38;4.28;;;;;;;15.84;100.00;99739.78;4323675;33;20037;-77
2022/10/18 03:51:47;;;;;;;8.25;4.45;;;;;;;15.66;100.00;99731.00;4322634;33;20098;-77
2022/10/18 03:54:13;;;;;;;6.80;4.50;;;;;;;15.45;100.00;99673.13;4311166;33;20481;-79
2022/10/18 03:56:46;;;;;;;14.68;5.75;;;;;;;16.04;100.00;99736.31;4308574;33;20063;-78
2022/10/18 03:59:13;;;;;;;5.47;4.35;;;;;;;15.94;100.00;99735.19;4302167;33;20041;-77
2022/10/18 04:01:39;;;;;;;8.20;3.42;;;;;;;15.54;100.00;99705.97;4296927;33;20059;-77
2022/10/18 04:04:06;;;;;;;15.10;4.12;;;;;;;15.44;100.00;99704.03;4305587;33;20052;-78
2022/10/18 04:06:32;;;;;;;13.85;5.68;;;;;;;15.48;100.00;99735.00;4296488;33;20071;-77
2022/10/18 04:08:58;;;;;;;8.52;3.87;;;;;;;15.80;100.00;99740.31;4295282;33;20025;-77
2022/10/18 04:11:25;;;;;;;13.25;4.43;;;;;;;15.67;100.00;99742.66;4293172;33;20063;-77
2022/10/18 04:13:51;;;;;;;8.52;5.03;;;;;;;15.71;100.00;99743.78;4294378;33;20040;-77
2022/10/18 04:16:18;;;;;;;9.38;4.10;;;;;;;15.62;100.00;99746.22;4306027;33;20434;-78
2022/10/18 04:18:44;;;;;;;6.82;4.47;;;;;;;15.55;100.00;99735.56;4308024;33;20092;-78
2022/10/18 04:21:10;;;;;;;12.98;5.93;;;;;;;15.32;100.00;99730.59;4309272;33;20033;-77
2022/10/18 04:23:37;;;;;;;10.25;5.03;;;;;;;15.25;100.00;99696.37;4308941;33;20046;-77
2022/10/18 04:26:03;;;;;;;13.77;5.28;;;;;;;15.26;100.00;99699.91;4291828;33;20049;-79
2022/10/18 04:28:30;;;;;;;20.00;5.10;;;;;;;15.15;100.00;99696.31;4293063;33;20850;-77
2022/10/18 04:30:56;;;;;;;14.73;4.37;;;;;;;15.40;100.00;99694.81;4269576;33;20042;-77
2022/10/18 04:33:23;;;;;;;8.38;3.92;;;;;;;15.61;100.00;99737.22;4265026;33;20064;-76
2022/10/18 04:35:51;;;;;;;9.10;5.18;;;;;;;15.32;100.00;99681.78;4266195;33;20075;-76
2022/10/18 04:38:18;;;;;;;6.35;3.78;;;;;;;15.31;100.00;99723.53;4267406;33;20030;-76
2022/10/18 04:40:45;;;;;;;7.28;4.07;;;;;;;15.19;100.00;99730.00;4274767;33;20058;-76
2022/10/18 04:43:11;;;;;;;6.25;3.87;;;;;;;15.14;100.00;99719.13;4265757;33;20368;-76
2022/10/18 04:45:38;;;;;;;6.65;4.28;;;;;;;15.48;100.00;99724.16;4265476;33;20037;-76
2022/10/18 04:48:05;;;;;;;6.22;4.03;;;;;;;14.92;100.00;99665.03;4269139;33;20191;-78
2022/10/18 04:50:31;;;;;;;16.37;4.80;;;;;;;14.94;100.00;99676.41;4275714;33;20034;-76
2022/10/18 04:52:58;;;;;;;7.18;5.12;;;;;;;15.25;100.00;99709.94;4282611;33;20049;-76
2022/10/18 04:55:24;;;;;;;7.25;3.92;;;;;;;15.14;100.00;99697.41;4294453;33;20241;-76
2022/10/18 04:57:51;;;;;;;6.10;5.03;;;;;;;15.21;100.00;99689.84;4306007;33;20172;-76
2022/10/18 05:00:18;;;;;;;5.40;3.92;;;;;;;15.62;100.00;99725.28;4307208;33;20040;-81
2022/10/18 05:02:45;;;;;;;9.48;5.30;;;;;;;14.69;100.00;99668.94;4318340;33;20064;-76
2022/10/18 05:05:11;;;;;;;8.68;4.10;;;;;;;14.71;100.00;99645.94;4293571;33;20049;-77
2022/10/18 05:07:44;;;;;;;6.80;4.00;;;;;;;15.44;100.00;99717.63;4294495;33;20513;-76
2022/10/18 05:10:11;;;;;;;17.15;4.43;;;;;;;15.17;100.00;99729.44;4295043;33;20055;-78
2022/10/18 05:12:37;;;;;;;11.18;4.60;;;;;;;15.15;100.00;99719.94;4289548;33;20037;-77
2022/10/18 05:15:04;;;;;;;13.98;4.15;;;;;;;14.94;100.00;99719.00;4292688;33;20037;-77
2022/10/18 05:17:30;;;;;;;8.77;4.05;;;;;;;15.08;100.00;99726.41;4278101;33;20065;-78
2022/10/18 05:19:57;;;;;;;9.15;4.20;;;;;;;15.07;100.00;99721.25;4289698;33;20034;-77
2022/10/18 05:22:23;;;;;;;9.80;5.25;;;;;;;14.98;100.00;99730.94;4294950;33;20044;-79
2022/10/18 05:24:49;;;;;;;11.77;4.37;;;;;;;15.20;100.00;99726.19;4281919;33;20052;-77
2022/10/18 05:27:16;;;;;;;7.15;4.65;;;;;;;14.40;100.00;99671.97;4281885;33;20860;-78
2022/10/18 05:29:42;;;;;;;11.73;5.05;;;;;;;14.85;100.00;99733.06;4284553;33;20444;-78
2022/10/18 05:32:08;;;;;;;15.82;5.07;;;;;;;15.16;100.00;99727.81;4286918;33;20424;-78
2022/10/18 05:34:35;;;;;;;11.48;4.53;;;;;;;14.99;100.00;99711.69;4283727;33;20071;-78
2022/10/18 05:37:01;;;;;;;11.73;4.87;;;;;;;14.84;100.00;99681.78;4292753;33;20477;-77
2022/10/18 05:39:28;;;;;;;10.60;4.50;;;;;;;15.02;100.00;99726.63;4298423;33;20079;-78
2022/10/18 05:41:54;;;;;;;19.25;5.68;;;;;;;15.08;100.00;99725.59;4291263;33;20426;-78
2022/10/18 05:44:20;;;;;;;6.97;4.15;;;;;;;14.98;100.00;99720.94;4294869;33;20049;-76
2022/10/18 05:46:47;;;;;;;8.35;4.57;;;;;;;14.83;100.00;99702.66;4297440;33;20442;-77
2022/10/18 05:49:14;;;;;;;9.75;4.78;;;;;;;15.17;100.00;99729.44;4294124;33;20033;-78
2022/10/18 05:51:41;;;;;;;8.23;5.22;;;;;;;14.94;100.00;99740.69;4290896;33;20033;-76
2022/10/18 05:54:10;;;;;;;9.65;4.32;;;;;;;14.86;100.00;99683.16;4280500;33;20530;-78
2022/10/18 05:56:37;;;;;;;7.32;3.85;;;;;;;14.94;100.00;99724.41;4279329;33;20046;-78
2022/10/18 05:59:10;;;;;;;12.82;5.18;;;;;;;14.98;100.00;99725.50;4278631;33;20178;-78
2022/10/18 06:01:38;;;;;;;6.72;4.37;;;;;;;14.82;100.00;99679.34;4278837;33;20103;-78
2022/10/18 06:04:05;;;;;;;8.20;4.50;;;;;;;14.72;100.00;99690.09;4278935;33;20071;-79
2022/10/18 06:06:33;;;;;;;19.12;5.03;;;;;;;15.02;100.00;99727.44;4281955;33;20030;-80
2022/10/18 06:08:59;;;;;;;16.55;4.85;;;;;;;15.39;100.00;99725.75;4281032;33;20053;-82
2022/10/18 06:11:25;;;;;;;9.38;4.53;;;;;;;15.38;100.00;99734.94;4282828;33;20037;-79
2022/10/18 06:13:52;;;;;;;9.45;4.75;;;;;;;14.97;100.00;99696.78;4282040;33;20098;-78
2022/10/18 06:16:21;;;;;;;15.15;4.50;;;;;;;15.52;100.00;99736.09;4283141;33;20492;-78
2022/10/18 06:18:58;;;;;;;10.68;4.47;;;;;;;15.57;100.00;99738.84;4282494;33;20055;-80
2022/10/18 06:21:25;;;;;;;10.30;4.75;;;;;;;16.01;100.00;99743.09;4281630;33;20065;-77
2022/10/18 06:23:55;;;;;;;7.22;3.75;;;;;;;15.52;100.00;99679.09;4282167;33;20341;-78
2022/10/18 06:26:22;;;;;;;12.37;4.35;;;;;;;15.02;100.00;99699.53;4269796;33;20033;-77
2022/10/18 06:28:48;;;;;;;9.93;4.90;;;;;;;15.60;100.00;99742.91;4280771;33;20114;-78
2022/10/18 06:31:15;;;;;;;6.50;4.57;;;;;;;15.04;100.00;99703.59;4282936;33;20372;-78
2022/10/18 06:33:42;;;;;;;13.68;4.45;;;;;;;15.48;100.00;99740.44;4284240;33;20136;-77
2022/10/18 06:36:11;;;;;;;12.73;4.70;;;;;;;15.64;100.00;99743.22;4283007;33;20079;-78
2022/10/18 06:38:39;;;;;;;25.45;4.90;;;;;;;15.66;100.00;99741.06;4266430;33;20042;-78
2022/10/18 06:41:07;;;;;;;10.43;4.40;;;;;;;16.21;100.00;99747.75;4265392;33;20034;-89
2022/10/18 06:43:34;;;;;;;12.48;4.82;;;;;;;16.15;100.00;99754.25;4267308;33;20049;-78
2022/10/18 06:46:05;;;;;;;13.88;4.60;;;;;;;15.86;100.00;99754.72;4238041;33;20059;-78
2022/10/18 06:48:37;;;;;;;10.17;4.27;;;;;;;15.57;100.00;99711.72;4238832;33;20418;-79
2022/10/18 06:51:05;;;;;;;;;;;;;;;15.73;100.00;99722.59;4243049;33;20194;-80
2022/10/18 06:53:34;;;;;;;12.82;3.83;;;;;;;15.85;100.00;99747.66;4253081;33;19949;-79
2022/10/18 06:56:10;;;;;;;10.80;4.65;;;;;;;15.95;100.00;99717.81;4236282;33;20060;-77
2022/10/18 06:58:37;;;;;;;8.48;3.75;;;;;;;16.26;100.00;99755.91;4228496;33;20046;-79
2022/10/18 07:01:09;;;;;;;17.48;4.62;;;;;;;15.59;100.00;99752.97;4237355;33;20035;-81
2022/10/18 07:03:36;;;;;;;9.70;4.65;;;;;;;15.53;100.00;99736.94;4239432;33;20396;-80
2022/10/18 07:06:05;;;;;;;8.60;4.10;;;;;;;15.97;100.00;99726.53;4239566;33;20050;-79
2022/10/18 07:08:32;;;;;;;8.00;4.60;;;;;;;15.78;100.00;99700.94;4239399;33;20050;-79
2022/10/18 07:10:59;;;;;;;14.10;4.95;;;;;;;16.02;100.00;99705.88;4235198;33;20034;-81
2022/10/18 07:13:30;;;;;;;15.55;5.35;;;;;;;15.65;100.00;99695.97;4236869;33;20918;-80
2022/10/18 07:16:08;;;;;;;17.48;4.78;;;;;;;16.20;100.00;99746.12;4235908;33;20060;-80
2022/10/18 07:18:37;;;;;;;6.57;4.47;;;;;;;16.39;100.00;99742.87;4262227;33;20094;-83
2022/10/18 07:21:09;;;;;;;8.18;4.87;;;;;;;16.52;100.00;99740.41;4247068;33;20076;-78
2022/10/18 07:23:38;;;;;;;14.90;4.20;;;;;;;16.25;100.00;99737.97;4253353;33;20068;-78
2022/10/18 07:26:24;;;;;;;10.85;5.12;;;;;;;16.82;100.00;99748.84;4254866;33;20204;-78
2022/10/18 07:29:00;;;;;;;22.37;4.32;;;;;;;16.77;100.00;99710.75;4266146;33;20049;-79
2022/10/18 07:31:27;;;;;;;9.68;5.37;;;;;;;16.53;100.00;99712.16;4265757;33;20023;-79
2022/10/18 07:33:54;;;;;;;19.77;4.75;;;;;;;16.93;100.00;99709.72;4266043;33;20089;-79
2022/10/18 07:36:21;;;;;;;23.67;6.85;;;;;;;17.03;100.00;99704.22;4263834;33;20049;-80
2022/10/18 07:38:48;;;;;;;22.58;5.35;;;;;;;16.73;100.00;99709.69;4267696;33;20957;-80
2022/10/18 07:41:14;;;;;;;9.40;4.93;;;;;;;17.25;100.00;99727.59;4279881;33;20041;-79
2022/10/18 07:43:44;;;;;;;11.75;5.12;;;;;;;16.46;100.00;99706.16;4279537;33;20057;-78
2022/10/18 07:46:11;;;;;;;22.40;5.50;;;;;;;16.39;100.00;99726.56;4280894;33;20030;-78
2022/10/18 07:48:39;;;;;;;12.80;5.00;;;;;;;17.18;100.00;99735.22;4278912;33;20412;-79
2022/10/18 07:51:05;;;;;;;12.23;5.80;;;;;;;16.62;100.00;99677.06;4236508;33;20084;-79
2022/10/18 07:53:33;;;;;;;16.33;5.97;;;;;;;16.51;100.00;99689.03;4238165;33;20042;-80
2022/10/18 07:56:01;;;;;;;14.43;5.72;;;;;;;16.93;100.00;99725.19;4236949;33;20068;-80
2022/10/18 07:58:29;;;;;;;16.37;6.50;;;;;;;17.08;100.00;99727.09;4242115;33;20372;-79
2022/10/18 08:00:55;;;;;;;11.77;5.78;;;;;;;17.16;100.00;99680.25;4234683;33;20393;-78
2022/10/18 08:03:22;;;;;;;14.90;5.32;;;;;;;16.78;100.00;99671.63;4237925;33;20069;-78
2022/10/18 08:05:53;;;;;;;11.82;4.93;;;;;;;16.94;100.00;99678.69;4252887;33;20458;-79
2022/10/18 08:08:21;;;;;;;11.63;5.22;;;;;;;16.90;100.00;99710.25;4250509;33;20400;-80
2022/10/18 08:10:48;;;;;;;8.05;5.07;;;;;;;16.62;100.00;99715.12;4249028;33;20063;-78
2022/10/18 08:13:16;;;;;;;19.52;5.93;;;;;;;17.14;100.00;99677.00;4252089;33;20050;-77
2022/10/18 08:15:42;;;;;;;9.68;5.80;;;;;;;17.47;100.00;99707.34;4250190;33;20067;-78
2022/10/18 08:18:10;;;;;;;18.55;7.18;;;;;;;17.27;100.00;99714.50;4250541;33;20046;-82
2022/10/18 08:20:42;;;;;;;11.57;6.35;;;;;;;16.79;100.00;99611.53;4250225;33;20436;-81
2022/10/18 08:23:08;;;;;;;;;;;;;;;17.29;100.00;99706.88;4290197;33;20078;-78
2022/10/18 08:25:34;;;;;;;20.00;6.43;;;;;;;17.51;100.00;99703.00;4294705;33;19998;-78
2022/10/18 08:28:01;;;;;;;14.13;5.53;;;;;;;17.63;100.00;99673.53;4293360;33;20049;-80
2022/10/18 08:30:27;;;;;;;11.65;6.75;;;;;;;17.90;100.00;99694.06;4282220;33;20058;-77
2022/10/18 08:32:54;;;;;;;13.82;6.37;;;;;;;17.53;100.00;99665.41;4294047;33;20075;-77
2022/10/18 08:35:20;;;;;;;10.05;6.68;;;;;;;17.51;100.00;99698.34;4292705;33;20049;-77
2022/10/18 08:37:47;;;;;;;12.70;7.12;;;;;;;17.55;100.00;99682.25;4292221;33;20051;-77
2022/10/18 08:40:15;;;;;;;26.73;6.70;;;;;;;17.28;100.00;99705.25;4295063;33;20091;-78
2022/10/18 08:42:45;;;;;;;14.80;6.68;;;;;;;17.71;100.00;99680.25;4292004;33;20045;-79
2022/10/18 08:45:12;;;;;;;13.62;7.32;;;;;;;17.67;100.00;99718.16;4294174;33;20034;-78
2022/10/18 08:47:42;;;;;;;12.23;6.78;;;;;;;17.54;100.00;99702.44;4281717;33;20430;-78
2022/10/18 08:50:18;;;;;;;11.00;6.78;;;;;;;18.22;100.00;99690.03;4278110;33;20156;-78
2022/10/18 08:53:04;;;;;;;12.75;6.97;;;;;;;18.20;100.00;99656.81;4294544;33;20518;-79
2022/10/18 08:55:38;;;;;;;13.55;7.75;;;;;;;18.30;100.00;99689.44;4303845;33;20018;-79
2022/10/18 08:58:18;;;;;;;11.63;7.60;;;;;;;17.86;100.00;99673.94;4306938;33;20087;-77
2022/10/18 09:00:55;;;;;;;20.70;6.50;;;;;;;18.38;100.00;99710.66;4308363;33;20054;-78
2022/10/18 09:03:54;;;;;;;15.25;7.65;;;;;;;18.26;100.00;99696.56;4308632;33;20164;-76
2022/10/18 09:06:29;;;;;;;18.62;7.25;;;;;;;18.39;100.00;99701.34;4308700;33;20445;-76
2022/10/18 09:09:25;;;;;;;12.27;7.95;;;;;;;18.52;100.00;99703.44;4306162;33;20055;-78
2022/10/18 09:12:12;;;;;;;15.50;7.95;;;;;;;18.61;100.00;99697.38;4266320;33;20080;-76
2022/10/18 09:14:53;;;;;;;12.70;8.20;;;;;;;18.44;100.00;99698.59;4252554;33;20814;-76
2022/10/18 09:17:52;;;;;;;15.23;8.23;;;;;;;18.29;100.00;99690.56;4254269;33;20476;-75
2022/10/18 09:20:32;;;;;;;13.15;8.75;;;;;;;17.59;100.00;99658.84;4238409;33;20485;-76
2022/10/18 09:23:34;;;;;;;18.12;8.18;;;;;;;18.17;100.00;99690.09;4239036;33;20108;-78
2022/10/18 09:26:10;;;;;;;12.40;7.80;;;;;;;18.77;100.00;99679.75;4225217;33;21025;-77
2022/10/18 09:28:56;;;;;;;19.50;7.85;;;;;;;18.06;100.00;99653.91;4226278;33;20034;-76
2022/10/18 09:31:47;;;;;;;13.23;7.95;;;;;;;18.63;100.00;99686.97;4224282;34;20068;-79
2022/10/18 09:34:34;;;;;;;10.65;7.22;;;;;;;19.20;100.00;99682.59;4224699;34;20065;-80
2022/10/18 09:37:01;;;;;;;31.65;8.60;;;;;;;19.01;100.00;99685.25;4223603;34;20035;-77
2022/10/18 09:39:35;;;;;;;13.13;8.40;;;;;;;18.80;100.00;99640.97;4222250;34;20034;-77
2022/10/18 09:42:28;;;;;;;18.58;8.05;;;;;;;19.29;100.00;99680.03;4221206;33;20397;-78
2022/10/18 09:45:03;;;;;;;13.90;9.20;;;;;;;19.10;100.00;99674.53;4253611;33;20038;-77
2022/10/18 09:47:38;;;;;;;15.13;8.18;;;;;;;19.61;100.00;99664.88;4255615;33;20118;-79
2022/10/18 09:50:23;;;;;;;15.10;8.20;;;;;;;19.65;100.00;99678.75;4282415;33;20036;-77
2022/10/18 09:53:10;;;;;;;10.98;7.62;;;;;;;19.87;100.00;99648.94;4295921;33;20062;-80
2022/10/18 09:55:47;;;;;;;19.85;8.77;;;;;;;19.86;100.00;99658.25;4296668;33;20058;-79
2022/10/18 09:58:14;;;;;;;19.05;8.73;;;;;;;19.41;100.00;99611.34;4297739;33;20075;-77
2022/10/18 10:00:48;;;;;;;16.50;9.23;;;;;;;19.40;100.00;99648.75;4306072;33;20482;-77
2022/10/18 10:03:15;;;;;;;17.83;9.40;;;;;;;20.00;100.00;99649.31;4296970;33;20045;-77
2022/10/18 10:05:42;;;;;;;24.37;9.90;;;;;;;20.12;100.00;99633.28;4296223;33;20051;-78
2022/10/18 10:08:09;;;;;;;19.80;10.40;;;;;;;20.50;100.00;99627.69;4296815;33;20075;-77
2022/10/18 10:10:44;;;;;;;20.12;10.10;;;;;;;20.06;100.00;99637.19;4297204;33;20185;-77
2022/10/18 10:13:23;;;;;;;23.30;10.25;;;;;;;19.99;100.00;99640.28;4295824;33;20078;-78
2022/10/18 10:15:55;;;;;;;21.37;11.52;;;;;;;19.83;100.00;99645.19;4297527;33;20344;-78
2022/10/18 10:18:26;;;;;;;19.73;10.63;;;;;;;20.09;100.00;99622.94;4308858;33;20096;-78
2022/10/18 10:20:56;;;;;;;19.40;9.77;;;;;;;20.19;100.00;99636.41;4310417;33;20534;-77
2022/10/18 10:23:29;;;;;;;16.85;9.73;;;;;;;20.21;100.00;99609.59;4298670;33;20102;-77
2022/10/18 10:26:02;;;;;;;15.68;9.80;;;;;;;20.36;100.00;99603.06;4297202;33;20080;-77
2022/10/18 10:28:34;;;;;;;21.80;10.52;;;;;;;20.41;100.00;99577.53;4296556;33;20075;-78
2022/10/18 10:31:22;;;;;;;25.75;10.05;;;;;;;20.77;100.00;99601.50;4298169;33;20363;-77
2022/10/18 10:33:58;;;;;;;21.23;10.50;;;;;;;20.16;100.00;99609.69;4295728;33;20033;-78
2022/10/18 10:36:25;;;;;;;26.33;10.63;;;;;;;20.16;100.00;99587.81;4297810;33;20083;-76
2022/10/18 10:39:18;;;;;;;17.10;11.30;;;;;;;20.75;100.00;99614.69;4296531;33;20427;-77
2022/10/18 10:41:51;;;;;;;23.27;10.25;;;;;;;21.04;100.00;99596.03;4295434;33;20053;-78
2022/10/18 10:44:24;;;;;;;17.83;11.23;;;;;;;21.42;100.00;99595.75;4297830;33;20477;-76
2022/10/18 10:46:52;;;;;;;20.95;9.98;;;;;;;21.53;100.00;99562.69;4295638;33;20045;-78
2022/10/18 10:49:21;;;;;;;26.87;10.07;;;;;;;21.85;100.00;99597.25;4297641;33;20045;-80
2022/10/18 10:52:01;;;;;;;21.62;10.15;;;;;;;22.12;100.00;99544.22;4296858;33;20045;-77
2022/10/18 10:54:34;;;;;;;16.02;10.10;;;;;;;22.24;100.00;99592.19;4297057;33;20406;-78
2022/10/18 10:57:11;;;;;;;22.95;9.98;;;;;;;22.53;100.00;99579.94;4297147;33;20040;-78
2022/10/18 10:59:44;;;;;;;23.92;9.68;;;;;;;23.08;100.00;99582.25;4296844;33;20460;-76
2022/10/18 11:02:30;;;;;;;18.02;10.65;;;;;;;22.78;100.00;99590.19;4313426;33;20036;-79
2022/10/18 11:05:20;;;;;;;33.90;10.98;;;;;;;22.34;100.00;99581.00;4322248;33;20444;-82
2022/10/18 11:07:50;;;;;;;24.87;10.57;;;;;;;22.69;100.00;99589.37;4322936;33;20437;-79
2022/10/18 11:10:20;;;;;;;18.02;9.85;;;;;;;22.36;100.00;99514.84;4310066;33;20036;-79
2022/10/18 11:12:48;;;;;;;21.15;10.95;;;;;;;22.97;100.00;99531.47;4307047;33;20049;-79
2022/10/18 11:15:53;;;;;;;19.62;9.77;;;;;;;23.34;100.00;99576.81;4306426;33;20224;-80
2022/10/18 11:18:28;;;;;;;17.62;10.13;;;;;;;23.19;100.00;99564.34;4251543;33;20417;-80
2022/10/18 11:21:01;;;;;;;21.23;10.48;;;;;;;23.70;100.00;99552.88;4252750;33;20061;-79
2022/10/18 11:23:31;;;;;;;21.27;10.63;;;;;;;22.23;100.00;99498.13;4240366;33;20041;-81
2022/10/18 11:26:07;;;;;;;21.95;10.63;;;;;;;22.55;100.00;99544.78;4252321;33;20042;-83
2022/10/18 11:28:33;;;;;;;24.95;10.63;;;;;;;22.14;100.00;99533.72;4261105;33;20135;-82
2022/10/18 11:31:05;;;;;;;26.27;10.60;;;;;;;22.63;100.00;99533.03;4265099;33;20049;-82
2022/10/18 11:33:59;;;;;;;19.58;11.02;;;;;;;23.00;100.00;99528.91;4218532;33;20043;-79
2022/10/18 11:36:54;;;;;;;16.87;10.30;;;;;;;22.91;100.00;99521.78;4227697;33;20098;-80
2022/10/18 11:39:42;;;;;;;16.83;10.45;;;;;;;23.38;100.00;99513.78;4212690;33;20081;-78